createdAt,value
2023-05-02T00:01:21.588Z,1.23
2023-05-02T00:03:48.835Z,1.35
2023-05-02T00:06:15.993Z,1.40
2023-05-02T00:08:43.163Z,1.48
2023-05-02T00:11:10.213Z,1.40
2023-05-02T00:13:37.134Z,1.40
2023-05-02T00:16:04.372Z,1.48
2023-05-02T00:18:31.313Z,1.20
2023-05-02T00:20:58.333Z,1.40
2023-05-02T00:23:25.387Z,1.42
2023-05-02T00:25:52.355Z,1.30
2023-05-02T00:28:19.353Z,1.25
2023-05-02T00:30:47.457Z,1.48
2023-05-02T00:33:16.224Z,1.27
2023-05-02T00:35:43.384Z,1.40
2023-05-02T00:38:10.389Z,1.40
2023-05-02T00:40:48.490Z,1.20
2023-05-02T00:43:16.509Z,1.20
2023-05-02T00:45:45.882Z,1.35
2023-05-02T00:48:13.615Z,1.20
2023-05-02T00:50:42.584Z,1.35
2023-05-02T00:53:10.731Z,1.42
2023-05-02T00:55:38.012Z,1.35
2023-05-02T00:58:16.879Z,1.17
2023-05-02T01:00:59.879Z,1.35
2023-05-02T01:03:46.629Z,1.17
2023-05-02T01:06:19.738Z,1.30
2023-05-02T01:09:17.909Z,1.10
2023-05-02T01:11:48.484Z,1.27
2023-05-02T01:14:15.905Z,1.75
2023-05-02T01:16:46.075Z,1.33
2023-05-02T01:19:25.714Z,1.42
2023-05-02T01:21:54.650Z,1.30
2023-05-02T01:24:37.406Z,1.42
2023-05-02T01:27:42.484Z,1.30
2023-05-02T01:30:12.104Z,1.35
2023-05-02T01:32:41.439Z,1.40
2023-05-02T01:35:11.140Z,1.30
2023-05-02T01:37:39.834Z,1.30
2023-05-02T01:40:21.140Z,1.02
2023-05-02T01:45:16.977Z,1.10
2023-05-02T01:47:46.392Z,1.20
2023-05-02T01:50:17.819Z,1.10
2023-05-02T01:52:47.855Z,1.02
2023-05-02T01:55:17.900Z,1.30
2023-05-02T01:57:47.979Z,1.33
2023-05-02T02:00:18.958Z,1.15
2023-05-02T02:02:48.104Z,1.20
2023-05-02T02:05:15.303Z,1.20
2023-05-02T02:07:44.125Z,1.30
2023-05-02T02:10:11.575Z,1.20
2023-05-02T02:12:38.490Z,1.25
2023-05-02T02:15:15.005Z,1.33
2023-05-02T02:17:50.556Z,1.40
2023-05-02T02:20:19.226Z,1.20
2023-05-02T02:22:46.993Z,1.08
2023-05-02T02:25:17.023Z,1.27
2023-05-02T02:27:44.315Z,1.10
2023-05-02T02:30:12.228Z,1.20
2023-05-02T02:32:39.175Z,1.15
2023-05-02T02:35:07.595Z,1.13
2023-05-02T02:37:49.389Z,1.10
2023-05-02T02:40:38.430Z,1.30
2023-05-02T02:43:20.890Z,1.10
2023-05-02T02:45:54.009Z,1.00
2023-05-02T02:48:36.330Z,1.15
2023-05-02T02:51:16.290Z,0.93
2023-05-02T02:54:25.939Z,1.20
2023-05-02T02:57:01.923Z,1.00
2023-05-02T02:59:41.752Z,1.20
2023-05-02T03:02:10.563Z,1.17
2023-05-02T03:04:42.585Z,1.10
2023-05-02T03:07:09.895Z,0.90
2023-05-02T03:09:47.714Z,1.25
2023-05-02T03:12:15.180Z,0.93
2023-05-02T03:14:42.957Z,1.08
2023-05-02T03:17:10.260Z,1.00
2023-05-02T03:19:37.739Z,0.90
2023-05-02T03:22:05.486Z,1.15
2023-05-02T03:24:32.525Z,1.02
2023-05-02T03:27:00.144Z,1.00
2023-05-02T03:29:27.268Z,1.00
2023-05-02T03:31:54.206Z,1.10
2023-05-02T03:34:22.563Z,1.20
2023-05-02T03:36:49.675Z,0.88
2023-05-02T03:39:16.802Z,1.00
2023-05-02T03:41:44.230Z,1.10
2023-05-02T03:44:11.356Z,1.00
2023-05-02T03:46:38.624Z,0.98
2023-05-02T03:49:05.587Z,1.00
2023-05-02T03:51:34.204Z,0.90
2023-05-02T03:54:03.109Z,0.88
2023-05-02T03:56:30.254Z,0.88
2023-05-02T03:58:57.325Z,1.05
2023-05-02T04:01:24.366Z,1.13
2023-05-02T04:03:52.965Z,1.25
2023-05-02T04:06:19.933Z,1.00
2023-05-02T04:08:46.909Z,0.80
2023-05-02T04:11:13.861Z,0.98
2023-05-02T04:13:40.941Z,1.30
2023-05-02T04:16:07.985Z,0.80
2023-05-02T04:18:35.013Z,1.02
2023-05-02T04:21:02.004Z,0.98
2023-05-02T04:23:28.947Z,1.10
2023-05-02T04:25:56.864Z,0.90
2023-05-02T04:28:24.472Z,1.00
2023-05-02T04:30:51.921Z,0.80
2023-05-02T04:33:19.059Z,1.00
2023-05-02T04:35:46.460Z,0.93
2023-05-02T04:38:13.655Z,0.80
2023-05-02T04:40:41.265Z,0.90
2023-05-02T04:43:08.254Z,0.90
2023-05-02T04:45:37.016Z,1.60
2023-05-02T04:48:04.961Z,0.85
2023-05-02T04:50:32.673Z,1.42
2023-05-02T04:52:59.789Z,1.33
2023-05-02T04:55:26.936Z,1.00
2023-05-02T04:57:53.870Z,1.35
2023-05-02T05:00:22.166Z,1.10
2023-05-02T05:02:49.210Z,1.10
2023-05-02T05:05:16.323Z,1.10
2023-05-02T05:07:43.886Z,1.17
2023-05-02T05:10:11.886Z,1.27
2023-05-02T05:12:39.050Z,1.10
2023-05-02T05:15:07.229Z,3.40
2023-05-02T05:17:34.343Z,1.20
2023-05-02T05:20:01.767Z,1.48
2023-05-02T05:22:29.057Z,1.55
2023-05-02T05:24:56.136Z,1.73
2023-05-02T05:27:23.310Z,1.80
2023-05-02T05:29:50.341Z,3.55
2023-05-02T05:32:17.403Z,1.65
2023-05-02T05:34:44.470Z,1.90
2023-05-02T05:37:11.570Z,1.88
2023-05-02T05:39:38.574Z,1.77
2023-05-02T05:42:06.412Z,1.45
2023-05-02T05:44:33.583Z,2.22
2023-05-02T05:47:00.621Z,1.85
2023-05-02T05:49:27.728Z,1.85
2023-05-02T05:51:54.739Z,1.92
2023-05-02T05:54:21.939Z,1.60
2023-05-02T05:56:49.016Z,1.80
2023-05-02T05:59:16.203Z,2.33
2023-05-02T06:01:43.404Z,1.50
2023-05-02T06:04:10.507Z,1.80
2023-05-02T06:06:37.927Z,1.40
2023-05-02T06:09:05.010Z,1.65
2023-05-02T06:11:31.958Z,2.83
2023-05-02T06:13:59.021Z,4.03
2023-05-02T06:16:26.132Z,2.33
2023-05-02T06:18:53.621Z,1.85
2023-05-02T06:21:20.955Z,2.15
2023-05-02T06:23:47.949Z,2.72
2023-05-02T06:26:15.527Z,2.22
2023-05-02T06:28:42.609Z,2.03
2023-05-02T06:31:09.775Z,2.03
2023-05-02T06:33:37.357Z,2.80
2023-05-02T06:36:04.517Z,2.58
2023-05-02T06:38:31.700Z,2.20
2023-05-02T06:40:58.894Z,3.00
2023-05-02T06:43:25.937Z,3.88
2023-05-02T06:45:55.157Z,5.10
2023-05-02T06:48:23.131Z,5.88
2023-05-02T06:50:51.926Z,4.70
2023-05-02T06:53:19.053Z,3.63
2023-05-02T06:55:47.375Z,3.80
2023-05-02T06:58:15.052Z,3.22
2023-05-02T07:00:42.572Z,3.10
2023-05-02T07:03:11.601Z,2.80
2023-05-02T07:05:38.996Z,3.05
2023-05-02T07:08:06.757Z,3.22
2023-05-02T07:10:33.939Z,2.83
2023-05-02T07:13:01.063Z,2.58
2023-05-02T07:15:28.456Z,2.42
2023-05-02T07:17:55.646Z,2.30
2023-05-02T07:20:23.817Z,2.60
2023-05-02T07:22:51.234Z,2.30
2023-05-02T07:25:18.765Z,2.13
2023-05-02T07:27:46.086Z,2.17
2023-05-02T07:30:13.789Z,2.33
2023-05-02T07:32:41.254Z,2.15
2023-05-02T07:35:10.075Z,2.45
2023-05-02T07:37:37.505Z,2.38
2023-05-02T07:40:05.286Z,1.73
2023-05-02T07:42:36.677Z,2.10
2023-05-02T07:45:03.927Z,1.67
2023-05-02T07:47:31.146Z,1.70
2023-05-02T07:49:58.588Z,1.77
2023-05-02T07:52:26.640Z,2.20
2023-05-02T07:54:53.720Z,2.10
2023-05-02T07:57:20.770Z,1.50
2023-05-02T07:59:48.450Z,1.58
2023-05-02T08:02:18.273Z,1.63
2023-05-02T08:04:45.567Z,1.50
2023-05-02T08:07:12.644Z,1.70
2023-05-02T08:09:39.840Z,1.58
2023-05-02T08:12:06.993Z,1.58
2023-05-02T08:14:34.526Z,2.00
2023-05-02T08:17:02.013Z,1.27
2023-05-02T08:19:29.429Z,1.30
2023-05-02T08:21:56.876Z,1.42
2023-05-02T08:24:24.188Z,2.05
2023-05-02T08:26:51.281Z,1.48
2023-05-02T08:29:18.547Z,1.50
2023-05-02T08:31:45.914Z,1.73
2023-05-02T08:34:13.194Z,1.65
2023-05-02T08:36:40.544Z,1.90
2023-05-02T08:39:11.160Z,1.60
2023-05-02T08:41:39.190Z,1.40
2023-05-02T08:44:08.589Z,1.98
2023-05-02T08:46:37.753Z,1.60
2023-05-02T08:49:06.464Z,2.35
2023-05-02T08:51:36.329Z,1.67
2023-05-02T08:54:04.475Z,1.30
2023-05-02T08:56:35.929Z,1.27
2023-05-02T08:59:03.931Z,1.67
2023-05-02T09:01:33.318Z,1.38
2023-05-02T09:04:00.516Z,1.50
2023-05-02T09:06:29.794Z,1.45
2023-05-02T09:09:01.138Z,1.60
2023-05-02T09:11:33.528Z,1.92
2023-05-02T09:14:04.542Z,1.23
2023-05-02T09:16:41.734Z,1.42
2023-05-02T09:19:10.227Z,1.30
2023-05-02T09:21:38.394Z,1.30
2023-05-02T09:24:20.314Z,2.05
2023-05-02T09:27:04.025Z,1.73
2023-05-02T09:29:36.712Z,1.90
2023-05-02T09:32:05.743Z,2.75
2023-05-02T09:34:35.511Z,1.75
2023-05-02T09:37:06.269Z,3.15
2023-05-02T09:39:33.544Z,1.73
2023-05-02T09:42:03.385Z,2.60
2023-05-02T09:44:38.596Z,2.00
2023-05-02T09:47:07.403Z,2.83
2023-05-02T09:49:47.038Z,2.30
2023-05-02T09:52:20.293Z,2.00
2023-05-02T09:54:48.486Z,1.80
2023-05-02T09:57:15.644Z,2.33
2023-05-02T09:59:53.675Z,1.90
2023-05-02T10:02:22.292Z,2.85
2023-05-02T10:04:51.091Z,2.28
2023-05-02T10:07:18.595Z,2.40
2023-05-02T10:09:46.836Z,2.45
2023-05-02T10:12:19.453Z,2.53
2023-05-02T10:14:53.854Z,1.75
2023-05-02T10:17:32.715Z,2.17
2023-05-02T10:20:08.517Z,2.38
2023-05-02T10:22:37.217Z,2.35
2023-05-02T10:25:05.635Z,1.50
2023-05-02T10:27:33.762Z,1.63
2023-05-02T10:30:04.781Z,1.73
2023-05-02T10:32:35.201Z,1.70
2023-05-02T10:35:07.488Z,1.85
2023-05-02T10:37:39.791Z,1.40
2023-05-02T10:40:11.909Z,1.77
2023-05-02T10:42:42.775Z,1.90
2023-05-02T10:45:30.258Z,1.92
2023-05-02T10:48:20.627Z,2.30
2023-05-02T10:50:51.897Z,2.63
2023-05-02T10:56:18.601Z,1.95
2023-05-02T10:58:47.126Z,1.80
2023-05-02T11:01:29.793Z,1.48
2023-05-02T11:04:04.458Z,1.40
2023-05-02T11:06:34.979Z,1.35
2023-05-02T11:09:17.409Z,1.48
2023-05-02T11:11:46.744Z,1.40
2023-05-02T11:14:40.061Z,1.30
2023-05-02T11:17:09.356Z,1.35
2023-05-02T11:19:39.687Z,1.27
2023-05-02T11:22:22.470Z,1.23
2023-05-02T11:24:52.612Z,1.30
2023-05-02T11:27:38.968Z,1.30
2023-05-02T11:30:07.773Z,1.33
2023-05-02T11:32:49.426Z,1.45
2023-05-02T11:35:16.946Z,1.10
2023-05-02T11:37:44.505Z,1.40
2023-05-02T11:40:15.829Z,1.20
2023-05-02T11:42:43.131Z,1.55
2023-05-02T11:45:11.530Z,1.58
2023-05-02T11:47:38.869Z,1.20
2023-05-02T11:50:06.923Z,1.17
2023-05-02T11:52:42.574Z,1.10
2023-05-02T11:55:14.587Z,1.10
2023-05-02T11:57:43.351Z,1.00
2023-05-02T12:00:13.927Z,1.17
2023-05-02T12:02:45.986Z,1.20
2023-05-02T12:05:19.713Z,1.20
2023-05-02T12:07:49.760Z,1.50
2023-05-02T12:10:17.026Z,1.10
2023-05-02T12:12:45.173Z,1.40
2023-05-02T12:15:13.704Z,2.97
2023-05-02T12:17:44.826Z,2.00
2023-05-02T12:20:12.981Z,2.05
2023-05-02T12:22:40.335Z,3.08
2023-05-02T12:25:08.325Z,9.18
2023-05-02T12:27:35.769Z,10.60
2023-05-02T12:30:03.784Z,9.25
2023-05-02T12:32:34.545Z,7.20
2023-05-02T12:35:04.338Z,7.80
2023-05-02T12:37:31.627Z,6.40
2023-05-02T12:39:59.667Z,5.45
2023-05-02T12:42:27.503Z,7.63
2023-05-02T12:44:54.880Z,5.55
2023-05-02T12:47:26.481Z,6.15
2023-05-02T12:49:57.655Z,5.25
2023-05-02T12:52:47.590Z,5.57
2023-05-02T12:55:24.992Z,4.93
2023-05-02T12:58:00.475Z,4.18
2023-05-02T13:00:27.823Z,4.43
2023-05-02T13:02:57.091Z,4.05
2023-05-02T13:05:24.593Z,4.43
2023-05-02T13:07:52.493Z,4.50
2023-05-02T13:10:20.450Z,3.33
2023-05-02T13:12:50.158Z,3.28
2023-05-02T13:15:17.524Z,3.72
2023-05-02T13:17:45.465Z,3.33
2023-05-02T13:20:13.959Z,3.80
2023-05-02T13:22:41.297Z,3.33
2023-05-02T13:25:10.650Z,2.80
2023-05-02T13:27:38.852Z,2.28
2023-05-02T13:30:09.121Z,2.78
2023-05-02T13:32:37.443Z,2.63
2023-05-02T13:35:06.302Z,2.90
2023-05-02T13:37:33.549Z,2.92
2023-05-02T13:40:01.242Z,3.05
2023-05-02T13:42:28.913Z,2.63
2023-05-02T13:44:56.519Z,4.07
2023-05-02T13:47:24.917Z,2.80
2023-05-02T13:49:52.423Z,2.58
2023-05-02T13:52:19.707Z,2.53
2023-05-02T13:54:47.128Z,3.65
2023-05-02T13:57:14.393Z,4.03
2023-05-02T13:59:41.576Z,2.70
2023-05-02T14:02:11.579Z,3.28
2023-05-02T14:04:39.093Z,3.97
2023-05-02T14:07:06.930Z,2.60
2023-05-02T14:09:33.942Z,3.20
2023-05-02T14:12:02.435Z,3.00
2023-05-02T14:14:29.556Z,3.22
2023-05-02T14:16:56.671Z,2.08
2023-05-02T14:19:23.778Z,3.05
2023-05-02T14:21:50.869Z,2.15
2023-05-02T14:24:18.792Z,2.53
2023-05-02T14:26:45.898Z,4.78
2023-05-02T14:29:12.866Z,3.22
2023-05-02T14:31:39.865Z,5.25
2023-05-02T14:34:08.927Z,4.10
2023-05-02T14:36:36.215Z,3.60
2023-05-02T14:39:03.451Z,2.30
2023-05-02T14:41:30.683Z,2.80
2023-05-02T14:43:58.510Z,3.45
2023-05-02T14:46:25.698Z,3.17
2023-05-02T14:48:52.893Z,5.10
2023-05-02T14:51:20.045Z,3.47
2023-05-02T14:53:49.340Z,3.15
2023-05-02T14:56:17.748Z,3.20
2023-05-02T14:58:45.587Z,3.35
2023-05-02T15:01:25.060Z,4.05
2023-05-02T15:04:05.917Z,11.10
2023-05-02T15:06:35.735Z,8.80
2023-05-02T15:09:03.764Z,19.75
2023-05-02T15:11:35.622Z,8.40
2023-05-02T15:14:02.798Z,7.00
2023-05-02T15:16:30.443Z,12.15
2023-05-02T15:18:59.835Z,11.45
2023-05-02T15:21:27.131Z,12.25
2023-05-02T15:23:54.449Z,11.45
2023-05-02T15:26:21.893Z,7.78
2023-05-02T15:28:49.436Z,7.43
2023-05-02T15:31:16.534Z,6.57
2023-05-02T15:33:44.000Z,5.55
2023-05-02T15:36:11.633Z,7.57
2023-05-02T15:38:43.263Z,4.88
2023-05-02T15:41:12.419Z,5.60
2023-05-02T15:43:39.722Z,5.95
2023-05-02T15:46:07.013Z,4.93
2023-05-02T15:48:35.351Z,4.05
2023-05-02T15:51:03.311Z,4.05
2023-05-02T15:53:31.211Z,3.90
2023-05-02T15:55:58.554Z,3.00
2023-05-02T15:58:26.474Z,2.60
2023-05-02T16:00:53.717Z,3.45
2023-05-02T16:03:21.142Z,3.78
2023-05-02T16:05:48.320Z,3.03
2023-05-02T16:08:16.037Z,3.88
2023-05-02T16:10:43.910Z,3.17
2023-05-02T16:13:11.394Z,4.10
2023-05-02T16:15:39.607Z,4.88
2023-05-02T16:18:07.003Z,4.43
2023-05-02T16:20:37.355Z,3.75
2023-05-02T16:23:05.087Z,3.63
2023-05-02T16:25:33.091Z,3.25
2023-05-02T16:28:00.444Z,2.92
2023-05-02T16:30:28.700Z,5.55
2023-05-02T16:32:55.992Z,3.13
2023-05-02T16:35:23.196Z,3.67
2023-05-02T16:37:50.340Z,3.90
2023-05-02T16:40:18.920Z,2.95
2023-05-02T16:42:46.719Z,2.80
2023-05-02T16:45:15.600Z,5.25
2023-05-02T16:47:43.759Z,5.10
2023-05-02T16:50:11.319Z,5.80
2023-05-02T16:52:38.586Z,3.17
2023-05-02T16:55:06.820Z,3.63
2023-05-02T16:57:33.810Z,3.15
2023-05-02T17:00:02.105Z,3.38
2023-05-02T17:02:29.350Z,2.90
2023-05-02T17:04:56.594Z,3.05
2023-05-02T17:07:23.620Z,2.70
2023-05-02T17:09:50.660Z,2.40
2023-05-02T17:12:22.771Z,1.90
2023-05-02T17:14:50.133Z,2.10
2023-05-02T17:17:19.203Z,2.05
2023-05-02T17:19:46.613Z,2.20
2023-05-02T17:22:13.724Z,1.70
2023-05-02T17:24:41.078Z,1.70
2023-05-02T17:27:08.432Z,3.10
2023-05-02T17:29:35.868Z,2.65
2023-05-02T17:32:03.118Z,2.70
2023-05-02T17:34:30.920Z,2.10
2023-05-02T17:36:58.022Z,2.15
2023-05-02T17:39:25.316Z,2.70
2023-05-02T17:41:52.723Z,2.13
2023-05-02T17:44:20.425Z,2.00
2023-05-02T17:46:47.691Z,1.95
2023-05-02T17:49:14.934Z,1.80
2023-05-02T17:51:42.282Z,13.73
2023-05-02T17:54:09.866Z,19.33
2023-05-02T17:56:37.877Z,17.35
2023-05-02T17:59:05.541Z,16.70
2023-05-02T18:01:33.441Z,21.73
2023-05-02T18:04:01.514Z,25.30
2023-05-02T18:06:28.823Z,18.48
2023-05-02T18:08:56.940Z,17.67
2023-05-02T18:11:27.217Z,19.30
2023-05-02T18:13:54.361Z,18.97
2023-05-02T18:16:21.516Z,18.35
2023-05-02T18:18:48.778Z,18.60
2023-05-02T18:21:23.044Z,16.95
2023-05-02T18:23:50.442Z,14.77
2023-05-02T18:26:18.899Z,14.35
2023-05-02T18:28:48.190Z,14.45
2023-05-02T18:31:18.187Z,12.48
2023-05-02T18:33:49.559Z,12.00
2023-05-02T18:36:21.419Z,11.25
2023-05-02T18:38:49.385Z,10.55
2023-05-02T18:41:18.095Z,9.65
2023-05-02T18:43:45.602Z,9.38
2023-05-02T18:46:12.904Z,8.13
2023-05-02T18:48:40.293Z,7.88
2023-05-02T18:51:07.412Z,6.07
2023-05-02T18:53:34.628Z,6.13
2023-05-02T18:56:01.825Z,6.30
2023-05-02T18:58:29.042Z,6.00
2023-05-02T19:00:56.434Z,5.85
2023-05-02T19:03:24.927Z,5.20
2023-05-02T19:05:52.341Z,5.10
2023-05-02T19:08:21.507Z,4.60
2023-05-02T19:10:52.135Z,4.35
2023-05-02T19:13:19.269Z,4.38
2023-05-02T19:15:48.267Z,4.00
2023-05-02T19:18:15.765Z,3.58
2023-05-02T19:20:43.287Z,3.28
2023-05-02T19:23:19.807Z,3.13
2023-05-02T19:25:48.426Z,3.42
2023-05-02T19:28:19.416Z,3.05
2023-05-02T19:33:14.232Z,3.05
2023-05-02T19:35:42.359Z,4.75
2023-05-02T19:38:11.720Z,5.88
2023-05-02T19:40:39.768Z,5.15
2023-05-02T19:43:06.924Z,4.80
2023-05-02T19:45:35.483Z,5.88
2023-05-02T19:48:03.109Z,5.28
2023-05-02T19:50:34.611Z,5.28
2023-05-02T19:53:02.526Z,5.70
2023-05-02T19:55:30.571Z,4.85
2023-05-02T19:57:57.852Z,4.75
2023-05-02T20:00:25.459Z,4.50
2023-05-02T20:02:53.296Z,3.80
2023-05-02T20:05:22.774Z,3.83
2023-05-02T20:07:50.532Z,3.40
2023-05-02T20:10:18.915Z,3.45
2023-05-02T20:12:47.951Z,4.55
2023-05-02T20:15:17.832Z,4.47
2023-05-02T20:17:46.344Z,3.15
2023-05-02T20:20:15.125Z,3.67
2023-05-02T20:22:46.060Z,2.65
2023-05-02T20:25:17.298Z,3.22
2023-05-02T20:27:45.130Z,3.13
2023-05-02T20:30:14.571Z,2.58
2023-05-02T20:32:41.934Z,2.78
2023-05-02T20:35:11.591Z,2.58
2023-05-02T20:37:40.339Z,3.00
2023-05-02T20:40:12.670Z,1.98
2023-05-02T20:42:42.991Z,2.15
2023-05-02T20:45:14.927Z,1.90
2023-05-02T20:47:43.635Z,1.85
2023-05-02T20:50:11.714Z,1.80
2023-05-02T20:52:40.591Z,2.10
2023-05-02T20:55:08.699Z,1.73
2023-05-02T20:57:36.896Z,1.80
2023-05-02T21:00:05.657Z,2.47
2023-05-02T21:02:33.588Z,2.33
2023-05-02T21:05:01.134Z,2.05
2023-05-02T21:07:28.833Z,3.50
2023-05-02T21:09:56.190Z,2.88
2023-05-02T21:12:23.373Z,2.30
2023-05-02T21:14:55.346Z,1.98
2023-05-02T21:17:22.599Z,2.15
2023-05-02T21:19:49.892Z,1.88
2023-05-02T21:22:17.297Z,2.20
2023-05-02T21:24:48.547Z,2.08
2023-05-02T21:27:16.679Z,1.92
2023-05-02T21:29:44.203Z,1.70
2023-05-02T21:32:11.933Z,1.63
2023-05-02T21:34:39.519Z,1.85
2023-05-02T21:37:07.407Z,2.00
2023-05-02T21:39:35.530Z,2.10
2023-05-02T21:42:02.978Z,1.80
2023-05-02T21:44:30.332Z,1.73
2023-05-02T21:46:58.028Z,1.80
2023-05-02T21:49:25.611Z,1.80
2023-05-02T21:51:52.896Z,1.85
2023-05-02T21:54:19.974Z,1.60
2023-05-02T21:56:47.100Z,1.90
2023-05-02T21:59:14.354Z,1.60
2023-05-02T22:01:41.583Z,1.80
2023-05-02T22:04:09.065Z,1.73
2023-05-02T22:06:36.637Z,1.70
2023-05-02T22:09:05.704Z,1.63
2023-05-02T22:11:33.338Z,1.75
2023-05-02T22:14:00.565Z,1.50
2023-05-02T22:16:27.684Z,1.55
2023-05-02T22:18:54.906Z,1.58
2023-05-02T22:21:22.948Z,1.70
2023-05-02T22:23:50.073Z,1.90
2023-05-02T22:26:17.330Z,1.80
2023-05-02T22:28:44.608Z,1.70
2023-05-02T22:31:12.029Z,1.63
2023-05-02T22:33:39.609Z,1.65
2023-05-02T22:36:07.052Z,1.60
2023-05-02T22:38:34.273Z,1.50
2023-05-02T22:41:01.803Z,1.40
2023-05-02T22:43:28.848Z,1.83
2023-05-02T22:45:56.451Z,1.70
2023-05-02T22:48:23.410Z,1.80
2023-05-02T22:50:50.459Z,1.55
2023-05-02T22:53:17.533Z,1.80
2023-05-02T22:55:44.827Z,1.60
2023-05-02T22:58:12.156Z,1.60
2023-05-02T23:00:39.445Z,1.63
2023-05-02T23:03:06.582Z,2.08
2023-05-02T23:05:33.645Z,2.08
2023-05-02T23:08:00.756Z,1.50
2023-05-02T23:10:27.893Z,1.80
2023-05-02T23:12:54.873Z,1.60
2023-05-02T23:15:21.890Z,1.70
2023-05-02T23:17:49.501Z,1.67
2023-05-02T23:20:19.888Z,1.67
2023-05-02T23:22:47.028Z,1.40
2023-05-02T23:25:15.620Z,1.70
2023-05-02T23:27:42.746Z,1.60
2023-05-02T23:30:10.268Z,1.70
2023-05-02T23:32:37.975Z,1.70
2023-05-02T23:35:06.279Z,1.75
2023-05-02T23:37:33.769Z,1.70
2023-05-02T23:40:01.513Z,1.70
2023-05-02T23:42:32.538Z,1.85
2023-05-02T23:44:59.538Z,1.60
2023-05-02T23:47:27.461Z,1.60
2023-05-02T23:49:54.730Z,1.60
2023-05-02T23:52:21.792Z,1.73
2023-05-02T23:54:48.978Z,1.55
2023-05-02T23:57:16.014Z,1.48
2023-05-02T23:59:42.908Z,1.63
